sensor_id;sensor_type;location;lat;lon;timestamp;pressure;altitude;pressure_sealevel;temperature;humidity
68193;BME280;55012;47.562;18.414;2023-05-20T00:00:05;100177.09;;;12.78;100.00
68193;BME280;55012;47.562;18.414;2023-05-20T00:02:32;100177.09;;;12.78;100.00
68193;BME280;55012;47.562;18.414;2023-05-20T00:04:57;100176.19;;;12.74;100.00
68193;BME280;55012;47.562;18.414;2023-05-20T00:07:23;100181.84;;;12.69;100.00
68193;BME280;55012;47.562;18.414;2023-05-20T00:09:48;100176.16;;;12.61;100.00
68193;BME280;55012;47.562;18.414;2023-05-20T00:12:14;100174.13;;;12.58;100.00
68193;BME280;55012;47.562;18.414;2023-05-20T00:14:39;100175.72;;;12.59;100.00
68193;BME280;55012;47.562;18.414;2023-05-20T00:17:04;100177.63;;;12.59;100.00
68193;BME280;55012;47.562;18.414;2023-05-20T00:19:30;100178.41;;;12.59;100.00
68193;BME280;55012;47.562;18.414;2023-05-20T00:21:56;100176.50;;;12.60;100.00
68193;BME280;55012;47.562;18.414;2023-05-20T00:24:23;100171.63;;;12.65;100.00
68193;BME280;55012;47.562;18.414;2023-05-20T00:26:48;100171.78;;;12.69;100.00
68193;BME280;55012;47.562;18.414;2023-05-20T00:29:14;100168.81;;;12.74;100.00
68193;BME280;55012;47.562;18.414;2023-05-20T00:31:39;100164.78;;;12.80;100.00
68193;BME280;55012;47.562;18.414;2023-05-20T00:34:06;100159.59;;;12.87;100.00
68193;BME280;55012;47.562;18.414;2023-05-20T00:36:31;100162.19;;;12.96;100.00
68193;BME280;55012;47.562;18.414;2023-05-20T00:38:57;100157.00;;;13.03;100.00
68193;BME280;55012;47.562;18.414;2023-05-20T00:41:22;100154.06;;;13.08;100.00
68193;BME280;55012;47.562;18.414;2023-05-20T00:43:52;100152.69;;;13.14;100.00
68193;BME280;55012;47.562;18.414;2023-05-20T00:46:17;100140.03;;;13.18;100.00
68193;BME280;55012;47.562;18.414;2023-05-20T00:48:43;100143.66;;;13.23;100.00
68193;BME280;55012;47.562;18.414;2023-05-20T00:51:10;100144.94;;;13.25;100.00
68193;BME280;55012;47.562;18.414;2023-05-20T00:53:35;100139.59;;;13.29;100.00
68193;BME280;55012;47.562;18.414;2023-05-20T00:56:02;100141.63;;;13.32;100.00
68193;BME280;55012;47.562;18.414;2023-05-20T00:58:28;100137.81;;;13.33;100.00
68193;BME280;55012;47.562;18.414;2023-05-20T01:00:54;100134.03;;;13.37;100.00
68193;BME280;55012;47.562;18.414;2023-05-20T01:03:19;100136.41;;;13.39;100.00
68193;BME280;55012;47.562;18.414;2023-05-20T01:05:45;100135.28;;;13.40;100.00
68193;BME280;55012;47.562;18.414;2023-05-20T01:08:11;100126.47;;;13.43;100.00
68193;BME280;55012;47.562;18.414;2023-05-20T01:10:41;100127.59;;;13.42;100.00
68193;BME280;55012;47.562;18.414;2023-05-20T01:13:10;100131.31;;;13.37;100.00
68193;BME280;55012;47.562;18.414;2023-05-20T01:15:39;100140.84;;;13.31;100.00
68193;BME280;55012;47.562;18.414;2023-05-20T01:18:07;100141.44;;;13.25;100.00
68193;BME280;55012;47.562;18.414;2023-05-20T01:20:36;100144.69;;;13.18;100.00
68193;BME280;55012;47.562;18.414;2023-05-20T01:23:02;100139.81;;;13.11;100.00
68193;BME280;55012;47.562;18.414;2023-05-20T01:25:28;100146.22;;;13.07;100.00
68193;BME280;55012;47.562;18.414;2023-05-20T01:27:55;100154.97;;;13.00;100.00
68193;BME280;55012;47.562;18.414;2023-05-20T01:30:23;100151.69;;;12.94;100.00
68193;BME280;55012;47.562;18.414;2023-05-20T01:32:54;100144.41;;;12.86;100.00
68193;BME280;55012;47.562;18.414;2023-05-20T01:35:22;100147.69;;;12.80;100.00
68193;BME280;55012;47.562;18.414;2023-05-20T01:37:49;100146.31;;;12.74;100.00
68193;BME280;55012;47.562;18.414;2023-05-20T01:40:17;100146.09;;;12.67;100.00
68193;BME280;55012;47.562;18.414;2023-05-20T01:42:43;100140.88;;;12.61;100.00
68193;BME280;55012;47.562;18.414;2023-05-20T01:45:10;100155.78;;;12.55;100.00
68193;BME280;55012;47.562;18.414;2023-05-20T01:47:36;100147.63;;;12.43;100.00
68193;BME280;55012;47.562;18.414;2023-05-20T01:50:02;100154.19;;;12.42;100.00
68193;BME280;55012;47.562;18.414;2023-05-20T01:52:27;100153.91;;;12.35;100.00
68193;BME280;55012;47.562;18.414;2023-05-20T01:54:53;100153.78;;;12.31;100.00
68193;BME280;55012;47.562;18.414;2023-05-20T01:57:20;100153.53;;;12.24;100.00
68193;BME280;55012;47.562;18.414;2023-05-20T01:59:46;100154.53;;;12.20;100.00
68193;BME280;55012;47.562;18.414;2023-05-20T02:02:12;100152.00;;;12.15;100.00
68193;BME280;55012;47.562;18.414;2023-05-20T02:04:38;100148.84;;;12.13;100.00
68193;BME280;55012;47.562;18.414;2023-05-20T02:07:03;100146.66;;;12.06;100.00
68193;BME280;55012;47.562;18.414;2023-05-20T02:09:29;100142.72;;;12.03;100.00
68193;BME280;55012;47.562;18.414;2023-05-20T02:11:54;100133.19;;;11.97;100.00
68193;BME280;55012;47.562;18.414;2023-05-20T02:14:20;100134.19;;;11.93;100.00
68193;BME280;55012;47.562;18.414;2023-05-20T02:16:46;100130.53;;;11.89;100.00
68193;BME280;55012;47.562;18.414;2023-05-20T02:19:12;100140.13;;;11.86;100.00
68193;BME280;55012;47.562;18.414;2023-05-20T02:21:41;100128.69;;;11.80;100.00
68193;BME280;55012;47.562;18.414;2023-05-20T02:24:06;100138.25;;;11.78;100.00
68193;BME280;55012;47.562;18.414;2023-05-20T02:26:33;100138.59;;;11.76;100.00
68193;BME280;55012;47.562;18.414;2023-05-20T02:28:58;100133.03;;;11.73;100.00
68193;BME280;55012;47.562;18.414;2023-05-20T02:31:24;100146.56;;;11.73;100.00
68193;BME280;55012;47.562;18.414;2023-05-20T02:33:50;100145.78;;;11.72;100.00
68193;BME280;55012;47.562;18.414;2023-05-20T02:36:15;100143.41;;;11.71;100.00
68193;BME280;55012;47.562;18.414;2023-05-20T02:38:41;100138.78;;;11.71;100.00
68193;BME280;55012;47.562;18.414;2023-05-20T02:41:07;100136.84;;;11.72;100.00
68193;BME280;55012;47.562;18.414;2023-05-20T02:43:33;100132.22;;;11.72;100.00
68193;BME280;55012;47.562;18.414;2023-05-20T02:45:59;100132.56;;;11.71;100.00
68193;BME280;55012;47.562;18.414;2023-05-20T02:48:24;100127.94;;;11.71;100.00
68193;BME280;55012;47.562;18.414;2023-05-20T02:50:50;100137.19;;;11.70;100.00
68193;BME280;55012;47.562;18.414;2023-05-20T02:53:16;100125.91;;;11.68;100.00
68193;BME280;55012;47.562;18.414;2023-05-20T02:55:41;100132.09;;;11.69;100.00
68193;BME280;55012;47.562;18.414;2023-05-20T02:58:06;100127.16;;;11.71;100.00
68193;BME280;55012;47.562;18.414;2023-05-20T03:00:32;100125.22;;;11.71;100.00
68193;BME280;55012;47.562;18.414;2023-05-20T03:03:04;100131.09;;;11.73;100.00
68193;BME280;55012;47.562;18.414;2023-05-20T03:05:30;100125.03;;;11.76;100.00
68193;BME280;55012;47.562;18.414;2023-05-20T03:07:56;100142.09;;;11.77;100.00
68193;BME280;55012;47.562;18.414;2023-05-20T03:10:22;100136.34;;;11.78;100.00
68193;BME280;55012;47.562;18.414;2023-05-20T03:12:47;100142.25;;;11.80;100.00
68193;BME280;55012;47.562;18.414;2023-05-20T03:15:13;100130.63;;;11.80;100.00
68193;BME280;55012;47.562;18.414;2023-05-20T03:17:38;100143.03;;;11.81;100.00
68193;BME280;55012;47.562;18.414;2023-05-20T03:20:04;100134.72;;;11.86;100.00
68193;BME280;55012;47.562;18.414;2023-05-20T03:22:31;100139.34;;;11.86;100.00
68193;BME280;55012;47.562;18.414;2023-05-20T03:24:57;100133.00;;;11.81;100.00
68193;BME280;55012;47.562;18.414;2023-05-20T03:27:24;100141.31;;;11.76;100.00
68193;BME280;55012;47.562;18.414;2023-05-20T03:29:51;100134.94;;;11.72;100.00
68193;BME280;55012;47.562;18.414;2023-05-20T03:32:19;100148.03;;;11.70;100.00
68193;BME280;55012;47.562;18.414;2023-05-20T03:34:45;100144.19;;;11.71;100.00
68193;BME280;55012;47.562;18.414;2023-05-20T03:37:10;100142.63;;;11.70;100.00
68193;BME280;55012;47.562;18.414;2023-05-20T03:39:36;100145.31;;;11.70;100.00
68193;BME280;55012;47.562;18.414;2023-05-20T03:42:01;100148.50;;;11.72;100.00
68193;BME280;55012;47.562;18.414;2023-05-20T03:44:27;100146.56;;;11.73;100.00
68193;BME280;55012;47.562;18.414;2023-05-20T03:46:52;100146.56;;;11.73;100.00
68193;BME280;55012;47.562;18.414;2023-05-20T03:49:18;100145.78;;;11.72;100.00
68193;BME280;55012;47.562;18.414;2023-05-20T03:51:43;100137.81;;;11.76;100.00
68193;BME280;55012;47.562;18.414;2023-05-20T03:54:09;100137.91;;;11.79;100.00
68193;BME280;55012;47.562;18.414;2023-05-20T03:56:34;100142.97;;;11.90;100.00
68193;BME280;55012;47.562;18.414;2023-05-20T03:59:00;100134.47;;;12.00;100.00
68193;BME280;55012;47.562;18.414;2023-05-20T04:01:26;100141.84;;;12.12;100.00
68193;BME280;55012;47.562;18.414;2023-05-20T04:03:51;100139.16;;;12.24;100.00
68193;BME280;55012;47.562;18.414;2023-05-20T04:06:17;100145.44;;;12.36;100.00
68193;BME280;55012;47.562;18.414;2023-05-20T04:08:42;100146.59;;;12.48;100.00
68193;BME280;55012;47.562;18.414;2023-05-20T04:11:08;100149.34;;;12.60;100.00
68193;BME280;55012;47.562;18.414;2023-05-20T04:13:33;100153.56;;;12.70;100.00
68193;BME280;55012;47.562;18.414;2023-05-20T04:15:59;100158.88;;;12.78;100.00
68193;BME280;55012;47.562;18.414;2023-05-20T04:18:26;100162.63;;;12.86;100.00
68193;BME280;55012;47.562;18.414;2023-05-20T04:20:54;100160.16;;;12.93;100.00
68193;BME280;55012;47.562;18.414;2023-05-20T04:23:20;100152.56;;;12.99;100.00
68193;BME280;55012;47.562;18.414;2023-05-20T04:25:46;100146.81;;;13.00;100.00
68193;BME280;55012;47.562;18.414;2023-05-20T04:28:13;100155.06;;;13.04;100.00
68193;BME280;55012;47.562;18.414;2023-05-20T04:30:40;100151.22;;;13.05;100.00
68193;BME280;55012;47.562;18.414;2023-05-20T04:33:07;100151.34;;;13.08;100.00
68193;BME280;55012;47.562;18.414;2023-05-20T04:35:32;100143.75;;;13.14;100.00
68193;BME280;55012;47.562;18.414;2023-05-20T04:37:59;100158.38;;;13.21;100.00
68193;BME280;55012;47.562;18.414;2023-05-20T04:40:25;100155.91;;;13.29;100.00
68193;BME280;55012;47.562;18.414;2023-05-20T04:42:51;100167.09;;;13.39;100.00
68193;BME280;55012;47.562;18.414;2023-05-20T04:45:17;100169.69;;;13.48;100.00
68193;BME280;55012;47.562;18.414;2023-05-20T04:47:43;100166.84;;;13.57;100.00
68193;BME280;55012;47.562;18.414;2023-05-20T04:50:09;100163.22;;;13.65;100.00
68193;BME280;55012;47.562;18.414;2023-05-20T04:52:38;100157.66;;;13.73;100.00
68193;BME280;55012;47.562;18.414;2023-05-20T04:55:07;100154.81;;;13.82;100.00
68193;BME280;55012;47.562;18.414;2023-05-20T04:57:37;100156.63;;;13.90;100.00
68193;BME280;55012;47.562;18.414;2023-05-20T05:00:08;100142.09;;;13.98;100.00
68193;BME280;55012;47.562;18.414;2023-05-20T05:02:35;100150.53;;;14.09;100.00
68193;BME280;55012;47.562;18.414;2023-05-20T05:05:00;100145.19;;;14.13;100.00
68193;BME280;55012;47.562;18.414;2023-05-20T05:07:26;100149.09;;;14.27;100.00
68193;BME280;55012;47.562;18.414;2023-05-20T05:09:51;100157.91;;;14.37;100.00
68193;BME280;55012;47.562;18.414;2023-05-20T05:12:17;100151.19;;;14.46;100.00
68193;BME280;55012;47.562;18.414;2023-05-20T05:14:42;100156.84;;;14.53;100.00
68193;BME280;55012;47.562;18.414;2023-05-20T05:17:08;100155.09;;;14.61;100.00
68193;BME280;55012;47.562;18.414;2023-05-20T05:19:33;100151.06;;;14.71;100.00
68193;BME280;55012;47.562;18.414;2023-05-20T05:21:59;100153.25;;;14.81;100.00
68193;BME280;55012;47.562;18.414;2023-05-20T05:24:24;100160.94;;;14.91;100.00
68193;BME280;55012;47.562;18.414;2023-05-20T05:26:53;100165.06;;;15.01;100.00
68193;BME280;55012;47.562;18.414;2023-05-20T05:29:19;100161.00;;;15.10;100.00
68193;BME280;55012;47.562;18.414;2023-05-20T05:31:44;100172.16;;;15.21;100.00
68193;BME280;55012;47.562;18.414;2023-05-20T05:34:10;100167.78;;;15.32;100.00
68193;BME280;55012;47.562;18.414;2023-05-20T05:36:38;100174.25;;;15.43;100.00
68193;BME280;55012;47.562;18.414;2023-05-20T05:39:03;100175.56;;;15.50;100.00
68193;BME280;55012;47.562;18.414;2023-05-20T05:41:29;100180.41;;;15.56;100.00
68193;BME280;55012;47.562;18.414;2023-05-20T05:43:55;100195.81;;;15.64;100.00
68193;BME280;55012;47.562;18.414;2023-05-20T05:46:20;100202.56;;;15.70;100.00
68193;BME280;55012;47.562;18.414;2023-05-20T05:48:46;100215.66;;;15.81;100.00
68193;BME280;55012;47.562;18.414;2023-05-20T05:51:14;100226.72;;;15.88;100.00
68193;BME280;55012;47.562;18.414;2023-05-20T05:53:40;100227.66;;;15.95;100.00
68193;BME280;55012;47.562;18.414;2023-05-20T05:56:06;100233.28;;;16.02;100.00
68193;BME280;55012;47.562;18.414;2023-05-20T05:58:32;100240.13;;;16.12;100.00
68193;BME280;55012;47.562;18.414;2023-05-20T06:00:58;100243.09;;;16.23;100.00
68193;BME280;55012;47.562;18.414;2023-05-20T06:03:23;100244.88;;;16.35;100.00
68193;BME280;55012;47.562;18.414;2023-05-20T06:05:49;100252.13;;;16.46;100.00
68193;BME280;55012;47.562;18.414;2023-05-20T06:08:14;100255.53;;;16.59;100.00
68193;BME280;55012;47.562;18.414;2023-05-20T06:10:40;100260.75;;;16.68;100.00
68193;BME280;55012;47.562;18.414;2023-05-20T06:13:05;100266.03;;;16.76;100.00
68193;BME280;55012;47.562;18.414;2023-05-20T06:15:31;100279.06;;;16.83;100.00
68193;BME280;55012;47.562;18.414;2023-05-20T06:17:56;100285.03;;;16.89;100.00
68193;BME280;55012;47.562;18.414;2023-05-20T06:20:22;100278.88;;;16.95;100.00
68193;BME280;55012;47.562;18.414;2023-05-20T06:22:47;100293.78;;;16.98;100.00
68193;BME280;55012;47.562;18.414;2023-05-20T06:25:13;100279.38;;;17.01;100.00
68193;BME280;55012;47.562;18.414;2023-05-20T06:27:38;100291.97;;;17.05;100.00
68193;BME280;55012;47.562;18.414;2023-05-20T06:30:04;100292.09;;;17.12;100.00
68193;BME280;55012;47.562;18.414;2023-05-20T06:32:30;100295.69;;;17.17;100.00
68193;BME280;55012;47.562;18.414;2023-05-20T06:34:56;100295.81;;;17.24;100.00
68193;BME280;55012;47.562;18.414;2023-05-20T06:37:21;100294.28;;;17.26;100.00
68193;BME280;55012;47.562;18.414;2023-05-20T06:39:50;100292.72;;;17.25;100.00
68193;BME280;55012;47.562;18.414;2023-05-20T06:42:19;100293.56;;;17.29;100.00
68193;BME280;55012;47.562;18.414;2023-05-20T06:44:45;100295.22;;;17.34;100.00
68193;BME280;55012;47.562;18.414;2023-05-20T06:47:13;100292.19;;;17.39;100.00
68193;BME280;55012;47.562;18.414;2023-05-20T06:49:39;100287.97;;;17.45;100.00
68193;BME280;55012;47.562;18.414;2023-05-20T06:52:05;100284.44;;;17.45;100.00
68193;BME280;55012;47.562;18.414;2023-05-20T06:54:30;100284.16;;;17.50;100.00
68193;BME280;55012;47.562;18.414;2023-05-20T06:56:58;100288.88;;;17.53;100.00
68193;BME280;55012;47.562;18.414;2023-05-20T06:59:24;100279.16;;;17.55;100.00
68193;BME280;55012;47.562;18.414;2023-05-20T07:01:49;100281.16;;;17.58;100.00
68193;BME280;55012;47.562;18.414;2023-05-20T07:04:15;100280.88;;;17.63;100.00
68193;BME280;55012;47.562;18.414;2023-05-20T07:06:40;100282.47;;;17.68;100.00
68193;BME280;55012;47.562;18.414;2023-05-20T07:09:06;100270.91;;;17.75;100.00
68193;BME280;55012;47.562;18.414;2023-05-20T07:11:32;100264.31;;;17.79;100.00
68193;BME280;55012;47.562;18.414;2023-05-20T07:13:57;100266.81;;;17.88;100.00
68193;BME280;55012;47.562;18.414;2023-05-20T07:16:23;100260.63;;;17.94;100.00
68193;BME280;55012;47.562;18.414;2023-05-20T07:18:48;100253.25;;;17.99;100.00
68193;BME280;55012;47.562;18.414;2023-05-20T07:21:14;100256.41;;;18.01;100.00
68193;BME280;55012;47.562;18.414;2023-05-20T07:23:39;100256.88;;;18.06;100.00
68193;BME280;55012;47.562;18.414;2023-05-20T07:26:05;100260.53;;;18.14;100.00
68193;BME280;55012;47.562;18.414;2023-05-20T07:28:30;100259.38;;;18.18;100.00
68193;BME280;55012;47.562;18.414;2023-05-20T07:30:55;100259.88;;;18.24;100.00
68193;BME280;55012;47.562;18.414;2023-05-20T07:33:22;100259.97;;;18.31;100.00
68193;BME280;55012;47.562;18.414;2023-05-20T07:35:47;100263.91;;;18.34;100.00
68193;BME280;55012;47.562;18.414;2023-05-20T07:38:13;100259.28;;;18.38;100.00
68193;BME280;55012;47.562;18.414;2023-05-20T07:40:39;100271.09;;;18.45;100.00
68193;BME280;55012;47.562;18.414;2023-05-20T07:43:08;100267.22;;;18.50;100.00
68193;BME280;55012;47.562;18.414;2023-05-20T07:45:34;100276.31;;;18.54;100.00
68193;BME280;55012;47.562;18.414;2023-05-20T07:48:01;100273.59;;;18.58;100.00
68193;BME280;55012;47.562;18.414;2023-05-20T07:50:26;100272.09;;;18.64;100.00
68193;BME280;55012;47.562;18.414;2023-05-20T07:52:52;100276.47;;;18.68;100.00
68193;BME280;55012;47.562;18.414;2023-05-20T07:55:17;100268.31;;;18.72;100.00
68193;BME280;55012;47.562;18.414;2023-05-20T07:57:43;100266.00;;;18.77;100.00
68193;BME280;55012;47.562;18.414;2023-05-20T08:00:09;100261.78;;;18.84;100.00
68193;BME280;55012;47.562;18.414;2023-05-20T08:02:36;100270.47;;;18.93;100.00
68193;BME280;55012;47.562;18.414;2023-05-20T08:05:01;100265.06;;;19.00;100.00
68193;BME280;55012;47.562;18.414;2023-05-20T08:07:27;100266.69;;;19.04;100.00
68193;BME280;55012;47.562;18.414;2023-05-20T08:09:52;100250.66;;;19.06;100.00
68193;BME280;55012;47.562;18.414;2023-05-20T08:12:17;100256.94;;;19.11;100.00
68193;BME280;55012;47.562;18.414;2023-05-20T08:14:44;100248.00;;;19.17;100.00
68193;BME280;55012;47.562;18.414;2023-05-20T08:17:09;100249.25;;;19.27;100.00
68193;BME280;55012;47.562;18.414;2023-05-20T08:19:35;100244.22;;;19.32;100.00
68193;BME280;55012;47.562;18.414;2023-05-20T08:22:00;100242.72;;;19.39;100.00
68193;BME280;55012;47.562;18.414;2023-05-20T08:24:26;100235.31;;;19.46;100.00
68193;BME280;55012;47.562;18.414;2023-05-20T08:26:52;100239.28;;;19.52;100.00
68193;BME280;55012;47.562;18.414;2023-05-20T08:29:17;100236.22;;;19.57;100.00
68193;BME280;55012;47.562;18.414;2023-05-20T08:31:43;100235.88;;;19.62;100.00
68193;BME280;55012;47.562;18.414;2023-05-20T08:34:08;100226.06;;;19.65;100.00
68193;BME280;55012;47.562;18.414;2023-05-20T08:36:33;100222.22;;;19.73;100.00
68193;BME280;55012;47.562;18.414;2023-05-20T08:38:59;100221.47;;;19.80;100.00
68193;BME280;55012;47.562;18.414;2023-05-20T08:41:26;100225.44;;;19.86;100.00
68193;BME280;55012;47.562;18.414;2023-05-20T08:43:52;100221.53;;;19.90;100.00
68193;BME280;55012;47.562;18.414;2023-05-20T08:46:18;100218.81;;;19.98;100.00
68193;BME280;55012;47.562;18.414;2023-05-20T08:48:46;100210.22;;;20.03;100.00
68193;BME280;55012;47.562;18.414;2023-05-20T08:51:15;100212.97;;;20.06;100.00
68193;BME280;55012;47.562;18.414;2023-05-20T08:53:40;100210.25;;;20.10;100.00
68193;BME280;55012;47.562;18.414;2023-05-20T08:56:07;100210.66;;;20.15;100.00
68193;BME280;55012;47.562;18.414;2023-05-20T08:58:33;100213.44;;;20.23;100.00
68193;BME280;55012;47.562;18.414;2023-05-20T09:00:59;100208.78;;;20.30;100.00
68193;BME280;55012;47.562;18.414;2023-05-20T09:03:25;100198.97;;;20.33;100.00
68193;BME280;55012;47.562;18.414;2023-05-20T09:05:52;100198.59;;;20.38;100.00
68193;BME280;55012;47.562;18.414;2023-05-20T09:08:19;100199.84;;;20.44;100.00
68193;BME280;55012;47.562;18.414;2023-05-20T09:10:51;100197.06;;;20.51;100.00
68193;BME280;55012;47.562;18.414;2023-05-20T09:13:16;100188.84;;;20.51;100.00
68193;BME280;55012;47.562;18.414;2023-05-20T09:15:42;100197.06;;;20.51;100.00
68193;BME280;55012;47.562;18.414;2023-05-20T09:18:07;100177.06;;;20.54;100.00
68193;BME280;55012;47.562;18.414;2023-05-20T09:20:35;100178.66;;;20.62;100.00
68193;BME280;55012;47.562;18.414;2023-05-20T09:23:03;100175.94;;;20.69;100.00
68193;BME280;55012;47.562;18.414;2023-05-20T09:25:29;100170.44;;;20.73;100.00
68193;BME280;55012;47.562;18.414;2023-05-20T09:27:54;100158.28;;;20.78;100.00
68193;BME280;55012;47.562;18.414;2023-05-20T09:30:21;100140.97;;;20.84;100.00
68193;BME280;55012;47.562;18.414;2023-05-20T09:35:20;100137.06;;;20.96;100.00
68193;BME280;55012;47.562;18.414;2023-05-20T09:37:46;100125.28;;;21.02;100.00
68193;BME280;55012;47.562;18.414;2023-05-20T09:40:14;100125.25;;;21.06;100.00
68193;BME280;55012;47.562;18.414;2023-05-20T09:43:03;100116.59;;;21.15;100.00
68193;BME280;55012;47.562;18.414;2023-05-20T09:45:29;100111.88;;;21.22;100.00
68193;BME280;55012;47.562;18.414;2023-05-20T09:47:55;100089.06;;;21.25;100.00
68193;BME280;55012;47.562;18.414;2023-05-20T09:50:22;100065.91;;;21.30;100.00
68193;BME280;55012;47.562;18.414;2023-05-20T09:52:49;100024.22;;;21.31;100.00
68193;BME280;55012;47.562;18.414;2023-05-20T09:55:17;100001.00;;;21.33;100.00
68193;BME280;55012;47.562;18.414;2023-05-20T09:57:43;99997.47;;;21.32;100.00
68193;BME280;55012;47.562;18.414;2023-05-20T10:00:10;99979.00;;;21.33;100.00
68193;BME280;55012;47.562;18.414;2023-05-20T10:02:49;99969.94;;;21.39;100.00
68193;BME280;55012;47.562;18.414;2023-05-20T10:05:20;99980.13;;;21.46;100.00
68193;BME280;55012;47.562;18.414;2023-05-20T10:16:12;100038.25;;;21.58;100.00
68193;BME280;55012;47.562;18.414;2023-05-20T10:19:04;100053.59;;;21.63;100.00
68193;BME280;55012;47.562;18.414;2023-05-20T10:21:33;100073.63;;;21.67;100.00
68193;BME280;55012;47.562;18.414;2023-05-20T10:24:06;100094.88;;;21.77;100.00
68193;BME280;55012;47.562;18.414;2023-05-20T10:29:01;100094.00;;;21.91;100.00
68193;BME280;55012;47.562;18.414;2023-05-20T10:31:27;100094.38;;;21.97;100.00
68193;BME280;55012;47.562;18.414;2023-05-20T10:33:52;100095.13;;;22.04;100.00
68193;BME280;55012;47.562;18.414;2023-05-20T10:36:36;100106.94;;;22.12;100.00
68193;BME280;55012;47.562;18.414;2023-05-20T10:39:02;100103.72;;;22.17;100.00
68193;BME280;55012;47.562;18.414;2023-05-20T10:41:29;100098.63;;;22.19;100.00
68193;BME280;55012;47.562;18.414;2023-05-20T10:44:04;100123.78;;;22.28;100.00
68193;BME280;55012;47.562;18.414;2023-05-20T10:46:30;100121.34;;;22.34;100.00
68193;BME280;55012;47.562;18.414;2023-05-20T10:48:56;100130.38;;;22.41;100.00
68193;BME280;55012;47.562;18.414;2023-05-20T10:51:23;100128.34;;;22.53;100.00
68193;BME280;55012;47.562;18.414;2023-05-20T10:53:52;100135.75;;;22.63;100.00
68193;BME280;55012;47.562;18.414;2023-05-20T10:56:23;100144.78;;;22.70;100.00
68193;BME280;55012;47.562;18.414;2023-05-20T10:58:50;100145.13;;;22.76;100.00
68193;BME280;55012;47.562;18.414;2023-05-20T11:01:16;100153.00;;;22.78;100.00
68193;BME280;55012;47.562;18.414;2023-05-20T11:03:44;100132.84;;;22.84;100.00
68193;BME280;55012;47.562;18.414;2023-05-20T11:06:16;100146.22;;;22.89;100.00
68193;BME280;55012;47.562;18.414;2023-05-20T11:08:43;100150.13;;;22.95;100.00
68193;BME280;55012;47.562;18.414;2023-05-20T11:11:10;100154.81;;;23.02;100.00
68193;BME280;55012;47.562;18.414;2023-05-20T11:13:36;100161.06;;;23.10;100.00
68193;BME280;55012;47.562;18.414;2023-05-20T11:16:02;100161.38;;;23.15;100.00
68193;BME280;55012;47.562;18.414;2023-05-20T11:18:29;100154.09;;;22.28;100.00
68193;BME280;55012;47.562;18.414;2023-05-20T11:20:59;100156.63;;;21.76;100.00
68193;BME280;55012;47.562;18.414;2023-05-20T11:23:26;100152.63;;;21.92;100.00
68193;BME280;55012;47.562;18.414;2023-05-20T11:25:53;100156.22;;;21.74;100.00
68193;BME280;55012;47.562;18.414;2023-05-20T11:28:19;100157.44;;;21.70;100.00
68193;BME280;55012;47.562;18.414;2023-05-20T11:30:48;100155.09;;;21.65;100.00
68193;BME280;55012;47.562;18.414;2023-05-20T11:33:15;100166.13;;;21.50;100.00
68193;BME280;55012;47.562;18.414;2023-05-20T11:35:51;100166.16;;;21.43;100.00
68193;BME280;55012;47.562;18.414;2023-05-20T11:38:17;100166.94;;;21.37;100.00
68193;BME280;55012;47.562;18.414;2023-05-20T11:40:53;100166.53;;;21.49;100.00
68193;BME280;55012;47.562;18.414;2023-05-20T11:43:20;100166.50;;;21.59;100.00
68193;BME280;55012;47.562;18.414;2023-05-20T11:45:50;100163.38;;;21.47;100.00
68193;BME280;55012;47.562;18.414;2023-05-20T11:48:17;100168.91;;;21.40;100.00
68193;BME280;55012;47.562;18.414;2023-05-20T11:50:47;100172.03;;;21.42;100.00
68193;BME280;55012;47.562;18.414;2023-05-20T11:53:18;100164.13;;;21.58;100.00
68193;BME280;55012;47.562;18.414;2023-05-20T11:55:45;100156.66;;;21.66;100.00
68193;BME280;55012;47.562;18.414;2023-05-20T11:58:15;100149.59;;;21.68;100.00
68193;BME280;55012;47.562;18.414;2023-05-20T12:00:40;100127.16;;;21.70;100.00
68193;BME280;55012;47.562;18.414;2023-05-20T12:03:06;100117.28;;;21.76;100.00
68193;BME280;55012;47.562;18.414;2023-05-20T12:05:31;100114.84;;;21.92;100.00
68193;BME280;55012;47.562;18.414;2023-05-20T12:07:57;100116.78;;;21.99;100.00
68193;BME280;55012;47.562;18.414;2023-05-20T12:10:22;100099.06;;;22.00;100.00
68193;BME280;55012;47.562;18.414;2023-05-20T12:12:48;100079.00;;;21.99;100.00
68193;BME280;55012;47.562;18.414;2023-05-20T12:15:13;100042.06;;;21.90;100.00
68193;BME280;55012;47.562;18.414;2023-05-20T12:17:47;100038.56;;;21.85;100.00
68193;BME280;55012;47.562;18.414;2023-05-20T12:20:14;100027.13;;;21.83;100.00
68193;BME280;55012;47.562;18.414;2023-05-20T12:22:44;100016.09;;;21.87;100.00
68193;BME280;55012;47.562;18.414;2023-05-20T12:25:14;100002.22;;;22.05;100.00
68193;BME280;55012;47.562;18.414;2023-05-20T12:27:41;99993.13;;;22.15;100.00
68193;BME280;55012;47.562;18.414;2023-05-20T12:30:08;99973.16;;;21.97;100.00
68193;BME280;55012;47.562;18.414;2023-05-20T12:32:36;99970.34;;;22.04;100.00
68193;BME280;55012;47.562;18.414;2023-05-20T12:35:02;99979.00;;;22.06;100.00
68193;BME280;55012;47.562;18.414;2023-05-20T12:37:28;99977.06;;;22.03;100.00
68193;BME280;55012;47.562;18.414;2023-05-20T12:39:53;99977.38;;;22.15;100.00